Current Weather

Al Udeid Ab

Al Udeid Ab, Qatar (OTBH)

Report from: Wednesday, May 29, 2024 6:55 AM UTC
Current time: Wednesday, May 29, 2024 8:02 AM UTC

Nearby weather – Weather history – Daily summaries
Weather forecast

Temperature43.0°C (109.4°F)
Heat index40.1°C (104.3°F)
Dew point5.0°C (41.0°F)
Winds 18 kts (9.3 m/s, 20.7 mph) North (350°)
Visibility6.2 mi. (10 km)
Clouds Few clouds 20,000 ft. (6,096 m)
Altimeter29.58 in.Hg (1002 mB)
Relative humidity10 %
Density altitude3,643 ft. (1,110 m)
Flight conditions Visual Meteorological Conditions
Raw dataOTBH 290655Z 35018KT 9999 FEW200 43/05 A2958 Q1001
An error has occurred. This application may no longer respond until reloaded. Reload 🗙